createdAt,value
2018-03-16T00:02:19.831Z,10.50
2018-03-16T00:07:22.527Z,10.50
2018-03-16T00:09:51.600Z,10.50
2018-03-16T00:12:19.912Z,10.50
2018-03-16T00:14:48.948Z,10.50
2018-03-16T00:17:17.259Z,10.50
2018-03-16T00:19:45.536Z,10.40
2018-03-16T00:25:18.896Z,10.30
2018-03-16T00:27:47.903Z,10.20
2018-03-16T00:30:16.159Z,10.20
2018-03-16T00:32:44.453Z,10.30
2018-03-16T00:35:12.716Z,10.20
2018-03-16T00:37:41.025Z,10.20
2018-03-16T00:40:09.268Z,10.20
2018-03-16T00:42:37.550Z,10.20
2018-03-16T00:45:05.810Z,10.10
2018-03-16T00:47:34.066Z,10.20
2018-03-16T00:50:03.088Z,10.20
2018-03-16T00:52:31.376Z,10.20
2018-03-16T00:54:59.608Z,10.10
2018-03-16T00:57:27.887Z,10.20
2018-03-16T00:59:56.194Z,10.20
2018-03-16T01:02:24.458Z,10.20
2018-03-16T01:04:52.710Z,10.20
2018-03-16T01:07:21.753Z,10.30
2018-03-16T01:09:50.007Z,10.30
2018-03-16T01:12:18.273Z,10.40
2018-03-16T01:14:47.298Z,10.30
2018-03-16T01:17:15.555Z,10.30
2018-03-16T01:19:43.805Z,10.30
2018-03-16T01:22:12.067Z,10.30
2018-03-16T01:24:40.349Z,10.20
2018-03-16T01:27:08.610Z,10.30
2018-03-16T01:29:36.940Z,10.20
2018-03-16T01:34:39.753Z,10.20
2018-03-16T01:37:08.030Z,10.20
2018-03-16T01:39:36.301Z,10.00
2018-03-16T01:42:04.588Z,9.80
2018-03-16T01:44:32.860Z,9.50
2018-03-16T01:47:01.134Z,9.40
2018-03-16T01:49:29.413Z,9.50
2018-03-16T01:51:57.648Z,9.50
2018-03-16T01:54:25.903Z,9.50
2018-03-16T01:56:54.171Z,9.50
2018-03-16T01:59:22.494Z,9.60
2018-03-16T02:01:50.757Z,9.40
2018-03-16T02:04:19.016Z,9.40
2018-03-16T02:06:47.264Z,9.40
2018-03-16T02:09:15.514Z,9.50
2018-03-16T02:11:43.788Z,9.40
2018-03-16T02:14:12.042Z,9.20
2018-03-16T02:16:41.103Z,9.10
2018-03-16T02:19:09.349Z,9.10
2018-03-16T02:21:37.893Z,9.10
2018-03-16T02:24:06.958Z,9.10
2018-03-16T02:26:35.213Z,9.10
2018-03-16T02:29:03.483Z,9.10
2018-03-16T02:31:31.788Z,9.10
2018-03-16T02:34:00.026Z,9.00
2018-03-16T02:36:28.275Z,9.10
2018-03-16T02:38:56.545Z,9.30
2018-03-16T02:41:24.796Z,9.30
2018-03-16T02:43:53.064Z,9.40
2018-03-16T02:46:21.304Z,9.50
2018-03-16T02:48:49.557Z,9.50
2018-03-16T02:51:17.827Z,9.60
2018-03-16T02:53:46.101Z,9.60
2018-03-16T02:56:15.113Z,9.60
2018-03-16T02:58:43.381Z,9.60
2018-03-16T03:01:11.652Z,9.50
2018-03-16T03:03:39.920Z,9.50
2018-03-16T03:06:08.924Z,9.30
2018-03-16T03:08:37.174Z,9.30
2018-03-16T03:11:06.193Z,9.50
2018-03-16T03:13:34.450Z,9.40
2018-03-16T03:16:03.478Z,9.50
2018-03-16T03:18:31.711Z,9.50
2018-03-16T03:21:00.739Z,9.30
2018-03-16T03:23:28.978Z,9.30
2018-03-16T03:25:57.232Z,9.30
2018-03-16T03:28:25.475Z,9.30
2018-03-16T03:30:53.737Z,9.40
2018-03-16T03:33:21.974Z,9.40
2018-03-16T03:35:50.238Z,9.40
2018-03-16T03:38:18.496Z,9.40
2018-03-16T03:40:46.746Z,9.40
2018-03-16T03:43:15.008Z,9.50
2018-03-16T03:45:43.260Z,9.50
2018-03-16T03:48:11.531Z,9.60
2018-03-16T03:50:39.781Z,9.70
2018-03-16T03:53:08.061Z,9.70
2018-03-16T03:55:36.297Z,9.60
2018-03-16T03:58:04.552Z,9.70
2018-03-16T04:00:33.569Z,9.60
2018-03-16T04:03:01.873Z,9.60
2018-03-16T04:05:30.823Z,9.60
2018-03-16T04:07:59.079Z,9.60
2018-03-16T04:10:27.336Z,9.60
2018-03-16T04:12:55.579Z,9.50
2018-03-16T04:15:23.848Z,9.50
2018-03-16T04:17:52.100Z,9.60
2018-03-16T04:20:21.128Z,9.60
2018-03-16T04:22:49.384Z,9.50
2018-03-16T04:25:17.663Z,9.60
2018-03-16T04:27:45.926Z,9.50
2018-03-16T04:30:14.947Z,9.40
2018-03-16T04:32:43.218Z,9.40
2018-03-16T04:35:11.463Z,9.40
2018-03-16T04:37:40.488Z,9.50
2018-03-16T04:40:08.727Z,9.40
2018-03-16T04:42:37.757Z,9.50
2018-03-16T04:45:06.003Z,9.50
2018-03-16T04:47:34.253Z,9.50
2018-03-16T04:50:02.533Z,9.50
2018-03-16T04:52:30.775Z,9.50
2018-03-16T04:54:59.021Z,9.50
2018-03-16T04:57:27.300Z,9.50
2018-03-16T04:59:55.547Z,9.50
2018-03-16T05:02:24.574Z,9.40
2018-03-16T05:04:52.872Z,9.40
2018-03-16T05:07:21.116Z,9.50
2018-03-16T05:09:49.371Z,9.50
2018-03-16T05:12:18.445Z,9.60
2018-03-16T05:14:46.651Z,9.50
2018-03-16T05:17:15.657Z,9.60
2018-03-16T05:19:43.929Z,9.60
2018-03-16T05:22:12.958Z,9.60
2018-03-16T05:24:41.232Z,9.60
2018-03-16T05:27:09.472Z,9.60
2018-03-16T05:29:37.743Z,9.60
2018-03-16T05:32:06.744Z,9.60
2018-03-16T05:34:35.007Z,9.60
2018-03-16T05:37:04.020Z,9.60
2018-03-16T05:39:32.265Z,9.60
2018-03-16T05:42:01.275Z,9.60
2018-03-16T05:44:29.524Z,9.60
2018-03-16T05:46:57.785Z,9.60
2018-03-16T05:49:26.033Z,9.70
2018-03-16T05:51:54.299Z,9.70
2018-03-16T05:54:22.557Z,9.60
2018-03-16T05:56:50.807Z,9.60
2018-03-16T05:59:19.117Z,9.70
2018-03-16T06:01:48.133Z,9.60
2018-03-16T06:04:16.400Z,9.60
2018-03-16T06:06:44.650Z,9.70
2018-03-16T06:09:13.669Z,9.60
2018-03-16T06:11:41.915Z,9.70
2018-03-16T06:14:10.950Z,9.70
2018-03-16T06:16:39.208Z,9.60
2018-03-16T06:19:07.534Z,9.80
2018-03-16T06:21:35.758Z,9.90
2018-03-16T06:24:04.008Z,9.90
2018-03-16T06:26:33.114Z,10.00
2018-03-16T06:29:01.353Z,10.00
2018-03-16T06:31:29.646Z,10.00
2018-03-16T06:33:58.663Z,10.00
2018-03-16T06:36:26.953Z,10.00
2018-03-16T06:38:55.961Z,10.10
2018-03-16T06:41:24.269Z,10.10
2018-03-16T06:43:52.507Z,10.10
2018-03-16T06:46:20.780Z,10.20
2018-03-16T06:48:49.022Z,10.30
2018-03-16T06:51:18.031Z,10.50
2018-03-16T06:53:46.326Z,10.40
2018-03-16T06:56:14.583Z,10.40
2018-03-16T06:58:42.857Z,10.50
2018-03-16T07:01:11.184Z,10.60
2018-03-16T07:03:39.424Z,10.70
2018-03-16T07:06:07.671Z,10.80
2018-03-16T07:08:36.723Z,10.60
2018-03-16T07:11:04.972Z,10.60
2018-03-16T07:13:33.227Z,10.50
2018-03-16T07:16:01.476Z,10.50
2018-03-16T07:18:29.741Z,10.50
2018-03-16T07:20:57.984Z,10.50
2018-03-16T07:23:26.250Z,10.50
2018-03-16T07:25:54.510Z,10.50
2018-03-16T07:28:23.657Z,10.50
2018-03-16T07:30:51.917Z,10.50
2018-03-16T07:33:20.168Z,10.40
2018-03-16T07:35:48.424Z,10.40
2018-03-16T07:38:17.450Z,10.30
2018-03-16T07:40:45.734Z,10.30
2018-03-16T07:43:13.981Z,10.40
2018-03-16T07:45:48.010Z,10.40
2018-03-16T07:48:16.273Z,10.40
2018-03-16T07:50:45.306Z,10.60
2018-03-16T07:53:13.548Z,10.50
2018-03-16T07:55:41.855Z,10.40
2018-03-16T07:58:10.650Z,10.40
2018-03-16T08:00:40.362Z,10.50
2018-03-16T08:03:08.705Z,10.50
2018-03-16T08:05:36.960Z,10.60
2018-03-16T08:08:05.211Z,10.70
2018-03-16T08:10:33.479Z,10.70
2018-03-16T08:13:01.797Z,10.60
2018-03-16T08:15:30.802Z,10.90
2018-03-16T08:17:59.059Z,10.90
2018-03-16T08:20:28.106Z,11.20
2018-03-16T08:22:56.355Z,11.10
2018-03-16T08:25:24.760Z,11.50
2018-03-16T08:27:53.001Z,11.70
2018-03-16T08:30:22.724Z,11.80
2018-03-16T08:32:50.996Z,11.80
2018-03-16T08:35:19.277Z,11.90
2018-03-16T08:37:47.535Z,11.80
2018-03-16T08:40:15.821Z,11.70
2018-03-16T08:42:44.113Z,11.80
2018-03-16T08:45:12.400Z,12.00
2018-03-16T08:47:40.668Z,12.10
2018-03-16T08:50:08.927Z,12.20
2018-03-16T08:52:37.200Z,12.40
2018-03-16T08:55:05.455Z,12.20
2018-03-16T08:57:34.464Z,12.20
2018-03-16T09:00:02.748Z,12.20
2018-03-16T09:02:31.013Z,12.30
2018-03-16T09:04:59.304Z,12.30
2018-03-16T09:07:27.554Z,12.30
2018-03-16T09:09:56.573Z,12.50
2018-03-16T09:12:25.671Z,12.40
2018-03-16T09:14:53.978Z,12.40
2018-03-16T09:17:22.354Z,12.60
2018-03-16T09:19:50.631Z,12.60
2018-03-16T09:22:18.907Z,12.60
2018-03-16T09:24:47.157Z,12.50
2018-03-16T09:27:15.487Z,12.60
2018-03-16T09:29:43.737Z,12.60
2018-03-16T09:32:12.009Z,12.60
2018-03-16T09:34:40.262Z,12.60
2018-03-16T09:37:08.509Z,12.50
2018-03-16T09:39:36.777Z,12.60
2018-03-16T09:42:05.071Z,12.50
2018-03-16T09:44:33.356Z,12.50
2018-03-16T09:47:01.626Z,12.40
2018-03-16T09:49:29.888Z,12.40
2018-03-16T09:51:58.183Z,12.30
2018-03-16T09:54:26.456Z,12.20
2018-03-16T09:56:55.484Z,12.10
2018-03-16T09:59:23.762Z,12.10
2018-03-16T10:01:52.037Z,12.00
2018-03-16T10:04:21.108Z,12.20
2018-03-16T10:06:49.544Z,12.20
2018-03-16T10:09:18.576Z,12.60
2018-03-16T10:11:46.857Z,12.50
2018-03-16T10:14:15.113Z,12.70
2018-03-16T10:16:43.392Z,12.70
2018-03-16T10:19:11.738Z,12.80
2018-03-16T10:21:39.994Z,12.70
2018-03-16T10:24:08.289Z,12.60
2018-03-16T10:26:36.546Z,12.50
2018-03-16T10:29:04.813Z,12.60
2018-03-16T10:31:33.065Z,12.60
2018-03-16T10:34:01.363Z,12.80
2018-03-16T10:36:29.643Z,12.90
2018-03-16T10:38:58.124Z,13.30
2018-03-16T10:41:26.452Z,13.40
2018-03-16T10:43:55.495Z,13.40
2018-03-16T10:46:23.776Z,13.40
2018-03-16T10:48:52.082Z,13.40
2018-03-16T10:51:20.309Z,13.40
2018-03-16T10:53:48.597Z,13.30
2018-03-16T10:56:16.888Z,13.10
2018-03-16T10:58:45.139Z,13.10
2018-03-16T11:01:18.528Z,12.90
2018-03-16T11:03:50.639Z,12.80
2018-03-16T11:06:24.598Z,12.70
2018-03-16T11:08:52.880Z,12.60
2018-03-16T11:11:21.142Z,12.60
2018-03-16T11:13:49.440Z,12.70
2018-03-16T11:16:17.706Z,12.80
2018-03-16T11:18:45.970Z,13.10
2018-03-16T11:21:14.261Z,13.40
2018-03-16T11:23:42.516Z,13.70
2018-03-16T11:26:10.778Z,13.90
2018-03-16T11:28:39.857Z,13.80
2018-03-16T11:31:09.049Z,13.80
2018-03-16T11:33:37.346Z,13.70
2018-03-16T11:36:05.600Z,13.90
2018-03-16T11:38:33.946Z,14.00
2018-03-16T11:41:02.213Z,14.20
2018-03-16T11:43:30.525Z,14.10
2018-03-16T11:45:58.804Z,13.90
2018-03-16T11:48:27.099Z,14.10
2018-03-16T11:50:55.353Z,14.20
2018-03-16T11:53:23.604Z,14.60
2018-03-16T11:55:51.897Z,14.90
2018-03-16T11:58:20.140Z,15.10
2018-03-16T12:00:48.409Z,15.00
2018-03-16T12:03:16.684Z,14.80
2018-03-16T12:05:45.021Z,14.50
2018-03-16T12:08:13.278Z,14.30
2018-03-16T12:10:41.539Z,14.10
2018-03-16T12:13:09.813Z,14.10
2018-03-16T12:15:38.065Z,14.50
2018-03-16T12:18:06.352Z,14.80
2018-03-16T12:20:34.599Z,14.90
2018-03-16T12:23:03.652Z,14.70
2018-03-16T12:25:31.923Z,14.70
2018-03-16T12:28:00.196Z,14.60
2018-03-16T12:30:28.439Z,14.70
2018-03-16T12:32:56.720Z,15.00
2018-03-16T12:35:25.085Z,15.10
2018-03-16T12:37:53.318Z,15.10
2018-03-16T12:40:21.617Z,14.70
2018-03-16T12:42:49.835Z,14.30
2018-03-16T12:45:18.133Z,13.80
2018-03-16T12:47:46.409Z,13.50
2018-03-16T12:50:14.656Z,13.50
2018-03-16T12:52:42.929Z,13.40
2018-03-16T12:55:11.174Z,13.60
2018-03-16T12:57:40.228Z,13.70
2018-03-16T13:00:09.674Z,13.70
2018-03-16T13:02:37.911Z,14.10
2018-03-16T13:05:06.177Z,14.60
2018-03-16T13:07:34.462Z,14.90
2018-03-16T13:10:02.751Z,15.10
2018-03-16T13:12:31.061Z,15.00
2018-03-16T13:15:00.125Z,14.90
2018-03-16T13:17:28.462Z,14.90
2018-03-16T13:19:56.780Z,14.70
2018-03-16T13:22:25.090Z,14.60
2018-03-16T13:24:54.160Z,14.50
2018-03-16T13:27:22.487Z,14.50
2018-03-16T13:29:50.852Z,14.50
2018-03-16T13:32:19.100Z,14.70
2018-03-16T13:34:48.150Z,14.90
2018-03-16T13:37:16.422Z,14.80
2018-03-16T13:39:44.677Z,14.80
2018-03-16T13:42:12.979Z,15.00
2018-03-16T13:44:41.264Z,14.90
2018-03-16T13:47:09.587Z,14.80
2018-03-16T13:49:37.847Z,14.70
2018-03-16T13:52:06.129Z,14.60
2018-03-16T13:54:35.196Z,14.80
2018-03-16T13:57:03.462Z,14.80
2018-03-16T13:59:31.758Z,15.00
2018-03-16T14:02:00.064Z,15.20
2018-03-16T14:04:28.328Z,15.10
2018-03-16T14:06:57.370Z,14.60
2018-03-16T14:09:25.624Z,14.60
2018-03-16T14:11:53.971Z,14.60
2018-03-16T14:14:23.010Z,14.80
2018-03-16T14:16:51.264Z,14.80
2018-03-16T14:19:19.548Z,15.10
2018-03-16T14:21:47.788Z,15.30
2018-03-16T14:24:16.941Z,15.50
2018-03-16T14:26:45.207Z,15.40
2018-03-16T14:29:13.546Z,15.50
2018-03-16T14:31:41.828Z,15.70
2018-03-16T14:34:10.148Z,15.80
2018-03-16T14:36:38.442Z,15.80
2018-03-16T14:39:07.605Z,15.60
2018-03-16T14:41:35.879Z,15.40
2018-03-16T14:44:04.146Z,15.20
2018-03-16T14:46:32.440Z,15.20
2018-03-16T14:49:00.696Z,15.10
2018-03-16T14:51:29.003Z,15.30
2018-03-16T14:53:57.267Z,15.10
2018-03-16T14:56:25.550Z,14.90
2018-03-16T14:58:53.799Z,15.00
2018-03-16T15:01:22.088Z,15.00
2018-03-16T15:03:50.345Z,14.90
2018-03-16T15:06:19.375Z,14.90
2018-03-16T15:08:47.640Z,14.90
2018-03-16T15:11:15.919Z,15.00
2018-03-16T15:13:44.228Z,14.90
2018-03-16T15:16:12.478Z,15.10
2018-03-16T15:18:40.791Z,15.00
2018-03-16T15:21:09.052Z,15.10
2018-03-16T15:23:37.376Z,14.90
2018-03-16T15:26:05.776Z,14.70
2018-03-16T15:28:34.819Z,14.50
2018-03-16T15:31:03.234Z,14.40
2018-03-16T15:33:31.617Z,14.20
2018-03-16T15:36:00.757Z,14.20
2018-03-16T15:38:29.049Z,14.20
2018-03-16T15:40:57.341Z,14.30
2018-03-16T15:43:25.589Z,14.30
2018-03-16T15:45:53.914Z,14.40
2018-03-16T15:48:22.928Z,14.40
2018-03-16T15:50:51.235Z,14.40
2018-03-16T15:53:19.460Z,14.50
2018-03-16T15:55:47.868Z,14.50
2018-03-16T15:58:16.136Z,14.60
2018-03-16T16:00:44.468Z,14.60
2018-03-16T16:03:12.717Z,14.50
2018-03-16T16:05:41.002Z,14.30
2018-03-16T16:08:09.322Z,14.20
2018-03-16T16:10:37.650Z,14.00
2018-03-16T16:13:05.936Z,13.70
2018-03-16T16:15:34.231Z,13.60
2018-03-16T16:18:03.304Z,13.40
2018-03-16T16:20:31.581Z,13.30
2018-03-16T16:22:59.849Z,13.30
2018-03-16T16:25:28.093Z,13.40
2018-03-16T16:27:56.387Z,13.40
2018-03-16T16:30:24.660Z,13.50
2018-03-16T16:32:52.913Z,13.50
2018-03-16T16:35:21.193Z,13.50
2018-03-16T16:37:49.480Z,13.50
2018-03-16T16:40:17.766Z,13.40
2018-03-16T16:42:46.054Z,13.50
2018-03-16T16:45:14.433Z,13.40
2018-03-16T16:47:42.699Z,13.40
2018-03-16T16:50:11.158Z,13.30
2018-03-16T16:52:39.404Z,13.30
2018-03-16T16:55:07.767Z,13.20
2018-03-16T16:57:35.981Z,13.10
2018-03-16T17:00:04.280Z,13.10
2018-03-16T17:02:32.571Z,13.10
2018-03-16T17:05:00.821Z,13.10
2018-03-16T17:07:29.834Z,13.00
2018-03-16T17:09:58.141Z,13.00
2018-03-16T17:12:26.374Z,12.90
2018-03-16T17:14:54.646Z,13.00
2018-03-16T17:17:22.932Z,12.90
2018-03-16T17:19:51.230Z,12.90
2018-03-16T17:22:19.511Z,12.80
2018-03-16T17:24:47.771Z,12.80
2018-03-16T17:27:16.035Z,12.70
2018-03-16T17:29:44.324Z,12.60
2018-03-16T17:32:24.014Z,12.60
2018-03-16T17:34:40.855Z,12.60
2018-03-16T17:37:09.137Z,12.50
2018-03-16T17:39:37.472Z,12.50
2018-03-16T17:42:05.731Z,12.50
2018-03-16T17:44:34.023Z,12.50
2018-03-16T17:47:02.292Z,12.50
2018-03-16T17:49:30.542Z,12.40
2018-03-16T17:51:58.847Z,12.40
2018-03-16T17:54:27.093Z,12.40
2018-03-16T17:56:55.369Z,12.30
2018-03-16T17:59:23.634Z,12.30
2018-03-16T18:01:51.888Z,12.30
2018-03-16T18:04:20.147Z,12.20
2018-03-16T18:06:48.410Z,12.10
2018-03-16T18:09:17.474Z,12.10
2018-03-16T18:11:45.732Z,12.10
2018-03-16T18:14:14.002Z,12.10
2018-03-16T18:16:42.280Z,12.10
2018-03-16T18:19:10.532Z,12.10
2018-03-16T18:21:38.816Z,12.00
2018-03-16T18:24:07.121Z,12.00
2018-03-16T18:26:35.405Z,12.00
2018-03-16T18:29:03.681Z,12.10
2018-03-16T18:31:31.940Z,12.00
2018-03-16T18:34:00.226Z,12.00
2018-03-16T18:36:28.480Z,11.90
2018-03-16T18:38:56.769Z,11.90
2018-03-16T18:41:25.036Z,11.80
2018-03-16T18:43:53.325Z,11.80
2018-03-16T18:46:21.607Z,11.80
2018-03-16T18:48:49.870Z,11.80
2018-03-16T18:51:18.141Z,11.70
2018-03-16T18:53:46.440Z,11.60
2018-03-16T18:56:15.701Z,11.60
2018-03-16T18:58:44.119Z,11.50
2018-03-16T19:01:12.892Z,11.40
2018-03-16T19:03:41.140Z,11.30
2018-03-16T19:06:09.409Z,11.30
2018-03-16T19:08:37.708Z,11.30
2018-03-16T19:11:06.503Z,11.30
2018-03-16T19:13:34.800Z,11.30
2018-03-16T19:16:03.060Z,11.20
2018-03-16T19:18:31.339Z,11.20
2018-03-16T19:20:59.596Z,11.10
2018-03-16T19:23:27.904Z,11.10
2018-03-16T19:25:56.168Z,11.20
2018-03-16T19:28:24.429Z,11.10
2018-03-16T19:30:52.700Z,11.10
2018-03-16T19:33:20.977Z,11.20
2018-03-16T19:35:49.274Z,11.20
2018-03-16T19:38:17.537Z,11.20
2018-03-16T19:40:45.822Z,11.00
2018-03-16T19:43:14.117Z,11.00
2018-03-16T19:45:42.428Z,11.00
2018-03-16T19:48:10.717Z,10.90
2018-03-16T19:50:38.993Z,11.00
2018-03-16T19:53:07.318Z,11.10
2018-03-16T19:55:35.610Z,11.10
2018-03-16T19:58:03.872Z,11.10
2018-03-16T20:00:32.190Z,11.00
2018-03-16T20:03:01.269Z,10.90
2018-03-16T20:05:29.571Z,10.90
2018-03-16T20:07:57.934Z,10.80
2018-03-16T20:10:26.230Z,10.90
2018-03-16T20:12:55.333Z,10.80
2018-03-16T20:15:23.615Z,10.80
2018-03-16T20:17:51.912Z,10.80
2018-03-16T20:20:20.203Z,10.80
2018-03-16T20:22:48.545Z,10.90
2018-03-16T20:25:16.785Z,10.80
2018-03-16T20:27:45.136Z,10.90
2018-03-16T20:30:13.483Z,10.80
2018-03-16T20:32:41.744Z,10.80
2018-03-16T20:35:10.031Z,10.80
2018-03-16T20:37:38.360Z,10.60
2018-03-16T20:40:06.654Z,10.60
2018-03-16T20:42:35.693Z,10.60
2018-03-16T20:45:03.950Z,10.60
2018-03-16T20:47:32.265Z,10.60
2018-03-16T20:50:00.529Z,10.60
2018-03-16T20:52:28.837Z,10.50
2018-03-16T20:54:57.122Z,10.50
2018-03-16T20:57:25.380Z,10.50
2018-03-16T20:59:53.673Z,10.50
2018-03-16T21:02:22.724Z,10.40
2018-03-16T21:04:50.990Z,10.40
2018-03-16T21:07:19.316Z,10.40
2018-03-16T21:09:47.593Z,10.40
2018-03-16T21:12:15.872Z,10.30
2018-03-16T21:14:44.200Z,10.30
2018-03-16T21:17:12.472Z,10.30
2018-03-16T21:19:41.163Z,10.20
2018-03-16T21:22:09.451Z,10.20
2018-03-16T21:24:37.768Z,10.00
2018-03-16T21:27:06.040Z,9.90
2018-03-16T21:29:34.314Z,10.00
2018-03-16T21:32:02.606Z,9.90
2018-03-16T21:34:30.905Z,9.80
2018-03-16T21:36:59.242Z,9.70
2018-03-16T21:39:27.586Z,9.70
2018-03-16T21:41:55.857Z,9.60
2018-03-16T21:44:24.159Z,9.60
2018-03-16T21:46:52.483Z,9.70
2018-03-16T21:49:21.584Z,9.70
2018-03-16T21:51:49.850Z,9.70
2018-03-16T21:54:18.861Z,9.70
2018-03-16T21:56:47.147Z,9.60
2018-03-16T21:59:15.392Z,9.50
2018-03-16T22:01:43.674Z,9.50
2018-03-16T22:04:12.698Z,9.30
2018-03-16T22:06:41.005Z,9.30
2018-03-16T22:09:09.331Z,9.20
2018-03-16T22:11:37.597Z,9.30
2018-03-16T22:14:05.917Z,9.40
2018-03-16T22:16:34.180Z,9.50
2018-03-16T22:19:02.483Z,9.50
2018-03-16T22:21:30.739Z,9.40
2018-03-16T22:23:59.033Z,9.40
2018-03-16T22:26:27.307Z,9.40
2018-03-16T22:28:55.602Z,9.40
2018-03-16T22:31:23.918Z,9.30
2018-03-16T22:33:52.182Z,9.20
2018-03-16T22:36:20.431Z,9.20
2018-03-16T22:38:48.694Z,9.20
2018-03-16T22:41:16.965Z,9.30
2018-03-16T22:43:45.223Z,9.30
2018-03-16T22:46:13.484Z,9.30
2018-03-16T22:48:41.797Z,9.40
2018-03-16T22:51:10.065Z,9.30
2018-03-16T22:53:38.364Z,9.30
2018-03-16T22:56:06.643Z,9.20
2018-03-16T22:58:34.901Z,9.20
2018-03-16T23:01:03.182Z,9.10
2018-03-16T23:03:31.471Z,9.20
2018-03-16T23:05:59.732Z,9.10
2018-03-16T23:08:28.016Z,9.10
2018-03-16T23:10:56.259Z,9.10
2018-03-16T23:13:24.548Z,9.00
2018-03-16T23:15:52.807Z,8.70
2018-03-16T23:18:21.108Z,8.70
2018-03-16T23:20:49.354Z,8.80
2018-03-16T23:23:17.643Z,8.60
2018-03-16T23:25:45.950Z,8.70
2018-03-16T23:28:14.288Z,8.80
2018-03-16T23:30:42.556Z,8.80
2018-03-16T23:33:10.825Z,8.90
2018-03-16T23:35:39.131Z,8.80
2018-03-16T23:38:07.437Z,8.80
2018-03-16T23:40:35.753Z,8.80
2018-03-16T23:43:04.019Z,8.80
2018-03-16T23:45:32.297Z,8.60
2018-03-16T23:48:00.587Z,8.70
2018-03-16T23:50:28.852Z,8.70
2018-03-16T23:52:57.156Z,8.70
2018-03-16T23:55:25.461Z,8.60
2018-03-16T23:57:53.762Z,8.60
